createdAt,value
2016-06-09T00:00:34.876Z,73.05
2016-06-09T00:01:34.833Z,73.15
2016-06-09T00:02:34.789Z,73.02
2016-06-09T00:03:34.730Z,72.86
2016-06-09T00:04:34.686Z,72.96
2016-06-09T00:05:34.861Z,72.77
2016-06-09T00:06:34.598Z,73.05
2016-06-09T00:07:34.554Z,73.24
2016-06-09T00:08:37.714Z,73.24
2016-06-09T00:09:34.451Z,73.59
2016-06-09T00:10:34.408Z,73.59
2016-06-09T00:11:34.347Z,73.69
2016-06-09T00:12:37.319Z,73.11
2016-06-09T00:13:34.260Z,73.24
2016-06-09T00:14:34.216Z,73.15
2016-06-09T00:15:34.172Z,73.15
2016-06-09T00:16:37.128Z,72.77
2016-06-09T00:17:34.070Z,72.86
2016-06-09T00:18:34.181Z,73.05
2016-06-09T00:19:37.185Z,73.05
2016-06-09T00:20:33.938Z,72.86
2016-06-09T00:21:36.894Z,72.77
2016-06-09T00:22:37.053Z,72.96
2016-06-09T00:23:36.807Z,73.24
2016-06-09T00:24:33.747Z,73.3
2016-06-09T00:25:33.719Z,73.21
2016-06-09T00:26:33.644Z,73.59
2016-06-09T00:27:33.804Z,73.3
2016-06-09T00:28:33.572Z,73.11
2016-06-09T00:29:33.512Z,73.59
2016-06-09T00:30:36.469Z,73.69
2016-06-09T00:31:33.409Z,73.59
2016-06-09T00:32:33.366Z,73.69
2016-06-09T00:33:34.275Z,73.69
2016-06-09T00:34:33.262Z,73.69
2016-06-09T00:35:42.251Z,73.5
2016-06-09T00:36:33.378Z,73.69
2016-06-09T00:37:36.115Z,73.59
2016-06-09T00:38:36.088Z,73.59
2016-06-09T00:39:42.043Z,73.69
2016-06-09T00:40:32.983Z,73.69
2016-06-09T00:41:32.940Z,73.88
2016-06-09T00:42:32.928Z,73.3
2016-06-09T00:43:32.836Z,73.4
2016-06-09T00:44:32.793Z,73.21
2016-06-09T00:45:32.748Z,73.4
2016-06-09T00:46:32.690Z,73.69
2016-06-09T00:47:32.646Z,73.69
2016-06-09T00:48:32.602Z,73.79
2016-06-09T00:49:32.558Z,73.69
2016-06-09T00:50:32.514Z,73.79
2016-06-09T00:51:32.487Z,73.79
2016-06-09T00:52:32.427Z,73.59
2016-06-09T00:53:32.571Z,73.97
2016-06-09T00:54:32.340Z,73.79
2016-06-09T00:55:32.264Z,73.4
2016-06-09T00:56:32.220Z,73.69
2016-06-09T00:57:32.177Z,73.59
2016-06-09T00:58:32.321Z,73.69
2016-06-09T00:59:32.089Z,73.79
2016-06-09T01:00:32.045Z,73.69
2016-06-09T01:01:32.001Z,74.07
2016-06-09T01:02:31.958Z,73.88
2016-06-09T01:03:31.757Z,74.16
2016-06-09T01:04:31.839Z,73.97
2016-06-09T01:05:31.811Z,73.88
2016-06-09T01:06:31.766Z,73.79
2016-06-09T01:07:31.691Z,74.07
2016-06-09T01:08:31.647Z,73.79
2016-06-09T01:09:31.620Z,73.69
2016-06-09T01:10:31.576Z,74.55
2016-06-09T01:11:34.720Z,74.45
2016-06-09T01:12:31.489Z,74.65
2016-06-09T01:13:31.273Z,74.84
2016-06-09T01:14:31.385Z,74.36
2016-06-09T01:15:31.341Z,74.84
2016-06-09T01:16:31.297Z,74.93
2016-06-09T01:17:34.254Z,74.74
2016-06-09T01:18:31.383Z,74.93
2016-06-09T01:19:34.150Z,75.02
2016-06-09T01:20:31.091Z,74.45
2016-06-09T01:21:31.251Z,74.45
2016-06-09T01:22:31.004Z,74.93
2016-06-09T01:23:30.959Z,74.93
2016-06-09T01:24:30.744Z,74.84
2016-06-09T01:25:33.872Z,74.74
2016-06-09T01:26:33.813Z,74.93
2016-06-09T01:27:33.971Z,75.12
2016-06-09T01:28:33.725Z,75.02
2016-06-09T01:29:30.885Z,74.84
2016-06-09T01:30:30.622Z,75.09
2016-06-09T01:31:30.562Z,74.7
2016-06-09T01:32:30.518Z,75.18
2016-06-09T01:33:33.491Z,75.27
2016-06-09T01:34:30.993Z,74.9
2016-06-09T01:35:33.387Z,75.56
2016-06-09T01:36:33.344Z,75.27
2016-06-09T01:37:30.283Z,75.85
2016-06-09T01:38:30.240Z,75.27
2016-06-09T01:39:36.212Z,75.37
2016-06-09T01:40:30.137Z,75.47
2016-06-09T01:41:30.296Z,75.56
2016-06-09T01:42:30.049Z,75.22
2016-06-09T01:43:33.521Z,75.41
2016-06-09T01:44:29.962Z,75.02
2016-06-09T01:45:29.903Z,74.99
2016-06-09T01:46:29.858Z,75.79
2016-06-09T01:47:29.815Z,75.76
2016-06-09T01:48:29.600Z,75.22
2016-06-09T01:49:31.149Z,75.31
2016-06-09T01:50:29.668Z,75.22
2016-06-09T01:51:29.609Z,74.84
2016-06-09T01:52:32.596Z,75.47
2016-06-09T01:53:29.521Z,75.27
2016-06-09T01:54:29.492Z,75.56
2016-06-09T01:55:30.136Z,75.09
2016-06-09T01:56:29.374Z,75.6
2016-06-09T01:57:29.330Z,74.74
2016-06-09T01:58:29.286Z,75.31
2016-06-09T01:59:29.243Z,75.22
2016-06-09T02:00:29.198Z,74.99
2016-06-09T02:01:32.154Z,75.02
2016-06-09T02:02:38.096Z,75.02
2016-06-09T02:03:32.896Z,74.84
2016-06-09T02:04:32.024Z,75.22
2016-06-09T02:05:28.964Z,75.31
2016-06-09T02:06:28.920Z,74.93
2016-06-09T02:07:31.861Z,75.09
2016-06-09T02:08:28.817Z,74.9
2016-06-09T02:09:31.757Z,75.18
2016-06-09T02:10:28.713Z,74.93
2016-06-09T02:11:28.701Z,75.02
2016-06-09T02:12:28.829Z,75.12
2016-06-09T02:13:28.583Z,75.02
2016-06-09T02:14:31.741Z,75.09
2016-06-09T02:15:28.495Z,74.9
2016-06-09T02:16:28.451Z,75.18
2016-06-09T02:17:28.376Z,74.7
2016-06-09T02:18:32.456Z,75.18
2016-06-09T02:19:28.335Z,75.09
2016-06-09T02:20:31.244Z,74.9
2016-06-09T02:21:28.418Z,75.18
2016-06-09T02:22:28.141Z,75.37
2016-06-09T02:23:28.097Z,74.8
2016-06-09T02:24:28.053Z,75.18
2016-06-09T02:25:28.041Z,74.9
2016-06-09T02:26:27.966Z,74.9
2016-06-09T02:27:27.906Z,74.32
2016-06-09T02:28:27.863Z,74.32
2016-06-09T02:29:27.819Z,74.61
2016-06-09T02:30:27.760Z,74.7
2016-06-09T02:31:27.716Z,74.7
2016-06-09T02:32:30.875Z,73.94
2016-06-09T02:33:27.613Z,73.94
2016-06-09T02:34:28.287Z,73.84
2016-06-09T02:35:27.540Z,73.84
2016-06-09T02:36:27.481Z,73.84
2016-06-09T02:37:30.656Z,73.94
2016-06-09T02:38:27.394Z,74.32
2016-06-09T02:39:27.334Z,74.22
2016-06-09T02:40:27.290Z,73.84
2016-06-09T02:41:33.263Z,73.75
2016-06-09T02:42:27.391Z,73.46
2016-06-09T02:43:30.158Z,73.55
2016-06-09T02:44:27.240Z,73.65
2016-06-09T02:45:30.070Z,73.65
2016-06-09T02:46:36.028Z,73.36
2016-06-09T02:47:26.968Z,73.75
2016-06-09T02:48:26.908Z,73.75
2016-06-09T02:49:29.724Z,73.65
2016-06-09T02:50:32.805Z,73.94
2016-06-09T02:51:29.980Z,73.84
2016-06-09T02:52:29.733Z,73.65
2016-06-09T02:53:26.658Z,73.65
2016-06-09T02:54:29.677Z,73.84
2016-06-09T02:55:26.587Z,73.46
2016-06-09T02:56:26.526Z,73.84
2016-06-09T02:57:29.482Z,73.46
2016-06-09T02:58:26.455Z,73.65
2016-06-09T02:59:26.536Z,74.09
2016-06-09T03:00:26.335Z,74.32
2016-06-09T03:01:29.324Z,73.46
2016-06-09T03:02:29.248Z,73.65
2016-06-09T03:03:29.205Z,73.65
2016-06-09T03:04:29.364Z,73.65
2016-06-09T03:05:26.087Z,73.65
2016-06-09T03:06:26.057Z,73.65
2016-06-09T03:07:29.029Z,73.65
2016-06-09T03:08:29.174Z,73.55
2016-06-09T03:09:25.911Z,74.28
2016-06-09T03:10:28.866Z,73.61
2016-06-09T03:11:28.823Z,73.52
2016-06-09T03:12:25.764Z,73.61
2016-06-09T03:13:25.720Z,73.43
2016-06-09T03:14:25.675Z,73.71
2016-06-09T03:15:28.601Z,73.8
2016-06-09T03:16:25.573Z,73.23
2016-06-09T03:17:25.529Z,73.75
2016-06-09T03:18:25.532Z,73.75
2016-06-09T03:19:28.660Z,73.8
2016-06-09T03:20:25.460Z,73.94
2016-06-09T03:21:25.338Z,73.52
2016-06-09T03:22:25.294Z,73.55
2016-06-09T03:23:25.234Z,73.14
2016-06-09T03:24:28.175Z,73.27
2016-06-09T03:25:25.148Z,73.17
2016-06-09T03:26:25.088Z,73.17
2016-06-09T03:27:25.356Z,73.27
2016-06-09T03:28:28.000Z,73.65
2016-06-09T03:29:24.956Z,73.65
2016-06-09T03:30:27.897Z,73.65
2016-06-09T03:31:24.853Z,73.27
2016-06-09T03:32:24.810Z,73.27
2016-06-09T03:33:24.953Z,73.36
2016-06-09T03:34:30.893Z,73.08
2016-06-09T03:35:27.663Z,72.88
2016-06-09T03:36:27.822Z,73.08
2016-06-09T03:37:24.574Z,72.98
2016-06-09T03:38:24.516Z,72.98
2016-06-09T03:39:27.487Z,72.98
2016-06-09T03:40:24.428Z,72.88
2016-06-09T03:41:24.399Z,72.41
2016-06-09T03:42:30.325Z,72.6
2016-06-09T03:43:30.156Z,72.69
2016-06-09T03:44:27.237Z,72.6
2016-06-09T03:45:24.209Z,72.5
2016-06-09T03:46:27.165Z,72.69
2016-06-09T03:47:24.308Z,72.6
2016-06-09T03:48:27.077Z,72.69
2016-06-09T03:49:27.690Z,72.6
2016-06-09T03:50:23.956Z,72.31
2016-06-09T03:51:23.895Z,71.93
2016-06-09T03:52:23.852Z,72.31
2016-06-09T03:53:23.809Z,72.31
2016-06-09T03:54:23.749Z,71.83
2016-06-09T03:55:23.720Z,71.73
2016-06-09T03:56:23.661Z,71.73
2016-06-09T03:57:23.602Z,71.93
2016-06-09T03:58:23.558Z,71.73
2016-06-09T03:59:26.533Z,71.36
2016-06-09T04:00:26.473Z,71.55
2016-06-09T04:01:23.426Z,71.36
2016-06-09T04:02:23.383Z,70.78
2016-06-09T04:03:26.358Z,71.55
2016-06-09T04:04:23.280Z,71.26
2016-06-09T04:05:26.239Z,70.59
2016-06-09T04:06:23.036Z,70.59
2016-06-09T04:07:23.352Z,70.5
2016-06-09T04:08:23.089Z,70.5
2016-06-09T04:09:23.029Z,70.68
2016-06-09T04:10:23.001Z,70.59
2016-06-09T04:11:22.942Z,70.21
2016-06-09T04:12:22.742Z,70.01
2016-06-09T04:13:22.838Z,70.3
2016-06-09T04:14:22.685Z,70.11
2016-06-09T04:15:23.063Z,69.92
2016-06-09T04:16:22.708Z,69.92
2016-06-09T04:17:25.666Z,69.73
2016-06-09T04:18:22.619Z,70.11
2016-06-09T04:19:28.610Z,70.11
2016-06-09T04:20:22.517Z,70.3
2016-06-09T04:21:22.473Z,69.92
2016-06-09T04:22:22.475Z,69.92
2016-06-09T04:23:22.385Z,69.82
2016-06-09T04:24:22.357Z,70.01
2016-06-09T04:25:25.297Z,70.4
2016-06-09T04:26:25.238Z,69.54
2016-06-09T04:27:25.194Z,69.64
2016-06-09T04:28:25.150Z,69.64
2016-06-09T04:29:22.309Z,69.44
2016-06-09T04:30:22.048Z,69.44
2016-06-09T04:31:42.226Z,68.68
2016-06-09T04:32:21.960Z,69.06
2016-06-09T04:33:24.915Z,68.87
2016-06-09T04:34:22.185Z,68.39
2016-06-09T04:35:24.813Z,68.49
2016-06-09T04:36:21.752Z,68.2
2016-06-09T04:37:24.725Z,68.77
2016-06-09T04:38:24.681Z,68.29
2016-06-09T04:39:30.640Z,68.39
2016-06-09T04:40:24.781Z,68.29
2016-06-09T04:41:21.518Z,67.82
2016-06-09T04:42:21.490Z,67.63
2016-06-09T04:43:21.430Z,67.53
2016-06-09T04:44:21.372Z,67.53
2016-06-09T04:45:21.343Z,67.53
2016-06-09T04:46:21.299Z,67.14
2016-06-09T04:47:27.462Z,67.53
2016-06-09T04:48:21.196Z,66.76
2016-06-09T04:49:21.355Z,66.38
2016-06-09T04:50:21.296Z,66.28
2016-06-09T04:51:21.065Z,65.61
2016-06-09T04:52:20.990Z,66
2016-06-09T04:53:20.946Z,65.33
2016-06-09T04:54:24.121Z,65.04
2016-06-09T04:55:24.061Z,64.75
2016-06-09T04:56:20.814Z,64.95
2016-06-09T04:57:20.770Z,64.37
2016-06-09T04:58:20.712Z,64.4
2016-06-09T04:59:23.684Z,64.47
2016-06-09T05:00:20.607Z,64.47
2016-06-09T05:01:20.565Z,64.47
2016-06-09T05:02:20.521Z,64.28
2016-06-09T05:03:20.477Z,63.64
2016-06-09T05:04:23.449Z,63.45
2016-06-09T05:05:26.404Z,63.26
2016-06-09T05:06:23.330Z,63.54
2016-06-09T05:07:20.301Z,63.45
2016-06-09T05:08:20.242Z,63.26
2016-06-09T05:09:20.215Z,63.16
2016-06-09T05:10:20.138Z,62.97
2016-06-09T05:11:20.110Z,62.49
2016-06-09T05:12:29.055Z,62.2
2016-06-09T05:13:20.008Z,62.2
2016-06-09T05:14:19.979Z,62.3
2016-06-09T05:15:19.920Z,62.2
2016-06-09T05:16:20.064Z,62.01
2016-06-09T05:17:20.020Z,62.3
2016-06-09T05:18:19.820Z,62.2
2016-06-09T05:19:19.776Z,62.4
2016-06-09T05:20:19.513Z,61.98
2016-06-09T05:21:22.641Z,62.74
2016-06-09T05:22:19.582Z,62.55
2016-06-09T05:23:19.522Z,62.65
2016-06-09T05:24:22.494Z,62.74
2016-06-09T05:25:22.450Z,63.03
2016-06-09T05:26:19.392Z,63.03
2016-06-09T05:27:22.348Z,63.03
2016-06-09T05:28:19.710Z,63.13
2016-06-09T05:29:19.243Z,62.65
2016-06-09T05:30:19.044Z,62.2
2016-06-09T05:31:22.563Z,62.3
2016-06-09T05:32:22.113Z,62.4
2016-06-09T05:33:22.069Z,62.11
2016-06-09T05:34:19.041Z,61.63
2016-06-09T05:35:19.403Z,61.82
2016-06-09T05:36:18.923Z,61.72
2016-06-09T05:37:22.065Z,61.82
2016-06-09T05:38:18.818Z,61.63
2016-06-09T05:39:18.774Z,61.82
2016-06-09T05:40:21.763Z,61.82
2016-06-09T05:41:21.688Z,61.72
2016-06-09T05:42:18.628Z,61.91
2016-06-09T05:43:18.584Z,61.82
2016-06-09T05:44:18.539Z,62.08
2016-06-09T05:45:18.481Z,61.54
2016-06-09T05:46:18.436Z,61.91
2016-06-09T05:47:18.393Z,61.72
2016-06-09T05:48:18.365Z,61.79
2016-06-09T05:49:18.383Z,61.98
2016-06-09T05:50:18.433Z,61.88
2016-06-09T05:51:24.421Z,61.69
2016-06-09T05:52:21.174Z,62.08
2016-06-09T05:53:18.114Z,61.88
2016-06-09T05:54:18.070Z,61.69
2016-06-09T05:55:21.027Z,61.79
2016-06-09T05:56:17.968Z,61.88
2016-06-09T05:57:26.939Z,61.22
2016-06-09T05:58:20.880Z,61.31
2016-06-09T05:59:20.836Z,61.6
2016-06-09T06:00:17.777Z,61.02
2016-06-09T06:01:17.733Z,60.96
2016-06-09T06:02:17.893Z,60.58
2016-06-09T06:03:20.645Z,61.15
2016-06-09T06:04:17.587Z,60.67
2016-06-09T06:05:17.745Z,60.29
2016-06-09T06:06:20.560Z,60.55
2016-06-09T06:07:17.454Z,61.12
2016-06-09T06:08:26.426Z,60.96
2016-06-09T06:09:17.366Z,60.48
2016-06-09T06:10:17.308Z,60.86
2016-06-09T06:11:23.280Z,60.96
2016-06-09T06:12:20.204Z,60.93
2016-06-09T06:13:20.192Z,61.15
2016-06-09T06:14:17.117Z,61.02
2016-06-09T06:15:20.276Z,60.48
2016-06-09T06:16:17.029Z,60.48
2016-06-09T06:17:17.032Z,60.48
2016-06-09T06:18:16.941Z,60.77
2016-06-09T06:19:25.898Z,60.48
2016-06-09T06:20:22.870Z,60.38
2016-06-09T06:21:16.795Z,60.29
2016-06-09T06:22:16.751Z,60.1
2016-06-09T06:23:16.692Z,59.91
2016-06-09T06:24:16.648Z,59.81
2016-06-09T06:25:16.588Z,59.43
2016-06-09T06:26:16.544Z,59.45
2016-06-09T06:27:16.500Z,59.17
2016-06-09T06:28:19.488Z,58.98
2016-06-09T06:29:16.413Z,58.88
2016-06-09T06:30:16.370Z,58.22
2016-06-09T06:31:16.309Z,58.88
2016-06-09T06:32:16.109Z,58.88
2016-06-09T06:33:16.222Z,58.79
2016-06-09T06:34:16.179Z,58.69
2016-06-09T06:35:16.134Z,58.31
2016-06-09T06:36:16.075Z,58.12
2016-06-09T06:37:16.031Z,58.02
2016-06-09T06:38:15.972Z,57.48
2016-06-09T06:39:15.928Z,57.16
2016-06-09T06:40:15.900Z,56.9
2016-06-09T06:41:15.840Z,56.99
2016-06-09T06:42:15.796Z,56.71
2016-06-09T06:43:18.753Z,56.42
2016-06-09T06:44:15.725Z,56.23
2016-06-09T06:45:15.680Z,55.36
2016-06-09T06:46:15.605Z,55.85
2016-06-09T06:47:15.577Z,55.65
2016-06-09T06:48:15.519Z,55.65
2016-06-09T06:49:18.475Z,55.36
2016-06-09T06:50:21.462Z,55.56
2016-06-09T06:51:15.387Z,55.56
2016-06-09T06:52:18.326Z,55.65
2016-06-09T06:53:15.284Z,55.27
2016-06-09T06:54:18.255Z,55.85
2016-06-09T06:55:15.196Z,55.94
2016-06-09T06:56:15.589Z,56.04
2016-06-09T06:57:21.155Z,56.23
2016-06-09T06:58:15.064Z,55.85
2016-06-09T06:59:15.021Z,56.04
2016-06-09T07:00:14.962Z,55.94
2016-06-09T07:01:14.933Z,56.23
2016-06-09T07:02:17.873Z,55.94
2016-06-09T07:03:17.830Z,56.23
2016-06-09T07:04:15.005Z,55.94
2016-06-09T07:05:17.726Z,55.75
2016-06-09T07:06:17.699Z,55.94
2016-06-09T07:07:14.639Z,56.23
2016-06-09T07:08:14.595Z,56.04
2016-06-09T07:09:14.536Z,56.32
2016-06-09T07:10:14.507Z,56.13
2016-06-09T07:11:14.449Z,56.13
2016-06-09T07:12:14.404Z,55.94
2016-06-09T07:13:17.376Z,55.94
2016-06-09T07:14:14.348Z,55.94
2016-06-09T07:15:14.273Z,56.04
2016-06-09T07:16:14.213Z,55.94
2016-06-09T07:17:14.186Z,55.36
2016-06-09T07:18:14.328Z,55.46
2016-06-09T07:19:14.160Z,55.24
2016-06-09T07:20:14.054Z,55.73
2016-06-09T07:21:14.010Z,55.18
2016-06-09T07:22:14.544Z,55.56
2016-06-09T07:23:14.063Z,55.08
2016-06-09T07:24:13.847Z,54.99
2016-06-09T07:25:13.788Z,54.79
2016-06-09T07:26:16.761Z,54.79
2016-06-09T07:27:13.560Z,54.32
2016-06-09T07:28:13.657Z,53.83
2016-06-09T07:29:13.815Z,53.93
2016-06-09T07:30:16.616Z,53.55
2016-06-09T07:31:13.354Z,53.64
2016-06-09T07:32:13.685Z,53.74
2016-06-09T07:33:13.438Z,54.03
2016-06-09T07:34:13.893Z,53.83
2016-06-09T07:35:16.444Z,54.32
2016-06-09T07:36:13.275Z,54.12
2016-06-09T07:37:13.247Z,54.12
2016-06-09T07:38:13.187Z,54.48
2016-06-09T07:39:13.143Z,54.41
2016-06-09T07:40:13.115Z,54.22
2016-06-09T07:41:13.337Z,54.12
2016-06-09T07:42:13.012Z,53.55
2016-06-09T07:43:12.969Z,53.26
2016-06-09T07:44:12.971Z,53.45
2016-06-09T07:45:13.131Z,52.59
2016-06-09T07:46:13.040Z,53.26
2016-06-09T07:47:12.981Z,53.26
2016-06-09T07:48:12.734Z,52.97
2016-06-09T07:49:12.893Z,52.87
2016-06-09T07:50:16.255Z,52.59
2016-06-09T07:51:12.587Z,52.69
2016-06-09T07:52:12.544Z,52.87
2016-06-09T07:53:12.499Z,52.97
2016-06-09T07:54:12.455Z,52.97
2016-06-09T07:55:12.395Z,53.26
2016-06-09T07:56:12.353Z,52.5
2016-06-09T07:57:15.184Z,52.78
2016-06-09T07:58:15.468Z,52.97
2016-06-09T07:59:12.220Z,52.97
2016-06-09T08:00:12.474Z,52.59
2016-06-09T08:01:12.133Z,52.97
2016-06-09T08:02:12.089Z,52.2
2016-06-09T08:03:12.030Z,52.3
2016-06-09T08:04:11.986Z,52.01
2016-06-09T08:05:12.145Z,51.92
2016-06-09T08:06:11.884Z,51.75
2016-06-09T08:07:11.854Z,51.63
2016-06-09T08:08:11.780Z,51.92
2016-06-09T08:09:11.799Z,52.01
2016-06-09T08:10:11.707Z,52.01
2016-06-09T08:11:11.664Z,52.01
2016-06-09T08:12:11.605Z,51.63
2016-06-09T08:13:11.560Z,51.63
2016-06-09T08:14:15.126Z,51.34
2016-06-09T08:15:11.488Z,51.25
2016-06-09T08:16:14.414Z,50.77
2016-06-09T08:17:14.385Z,50.7
2016-06-09T08:18:14.560Z,50.22
2016-06-09T08:19:11.282Z,50.79
2016-06-09T08:20:14.770Z,50.6
2016-06-09T08:21:14.194Z,50.12
2016-06-09T08:22:11.136Z,49.74
2016-06-09T08:23:11.294Z,49.86
2016-06-09T08:24:11.064Z,49.48
2016-06-09T08:25:14.022Z,49.29
2016-06-09T08:26:11.098Z,48.9
2016-06-09T08:27:11.191Z,49
2016-06-09T08:28:18.126Z,48.9
2016-06-09T08:29:13.986Z,48.9
2016-06-09T08:30:20.014Z,49
2016-06-09T08:31:10.939Z,49.38
2016-06-09T08:32:10.926Z,49.76
2016-06-09T08:33:14.132Z,49.86
2016-06-09T08:34:10.853Z,49.65
2016-06-09T08:35:10.683Z,49.65
2016-06-09T08:36:10.817Z,49.93
2016-06-09T08:37:10.592Z,49.84
2016-06-09T08:38:13.741Z,49.74
2016-06-09T08:39:10.671Z,49.38
2016-06-09T08:40:13.616Z,49.93
2016-06-09T08:41:10.574Z,49.93
2016-06-09T08:42:10.377Z,49.96
2016-06-09T08:43:10.491Z,49.96
2016-06-09T08:44:10.450Z,49.86
2016-06-09T08:45:10.235Z,49.67
2016-06-09T08:46:10.348Z,49.76
2016-06-09T08:47:10.321Z,49.57
2016-06-09T08:48:13.278Z,49.38
2016-06-09T08:49:10.204Z,49.38
2016-06-09T08:50:10.380Z,49.86
2016-06-09T08:51:13.586Z,49.86
2016-06-09T08:52:10.089Z,50.15
2016-06-09T08:53:10.030Z,49.96
2016-06-09T08:54:10.003Z,49.76
2016-06-09T08:55:12.959Z,49.48
2016-06-09T08:56:09.901Z,49.31
2016-06-09T08:57:10.075Z,49.02
2016-06-09T08:58:09.813Z,49.31
2016-06-09T08:59:09.754Z,49.12
2016-06-09T09:00:09.787Z,49.31
2016-06-09T09:01:12.680Z,48.93
2016-06-09T09:02:09.683Z,48.83
2016-06-09T09:03:09.608Z,49.12
2016-06-09T09:04:12.580Z,48.93
2016-06-09T09:05:09.740Z,48.74
2016-06-09T09:06:09.446Z,48.93
2016-06-09T09:07:09.606Z,48.93
2016-06-09T09:08:09.374Z,48.93
2016-06-09T09:09:09.440Z,48.74
2016-06-09T09:10:09.255Z,48.74
2016-06-09T09:11:09.275Z,48.74
2016-06-09T09:12:09.027Z,48.74
2016-06-09T09:13:09.437Z,48.64
2016-06-09T09:14:09.081Z,48.74
2016-06-09T09:15:09.037Z,48.54
2016-06-09T09:16:12.008Z,48.74
2016-06-09T09:17:08.777Z,48.93
2016-06-09T09:18:08.890Z,48.8
2016-06-09T09:19:08.908Z,48.9
2016-06-09T09:20:08.661Z,48.71
2016-06-09T09:21:09.227Z,48.8
2016-06-09T09:22:08.699Z,49.21
2016-06-09T09:23:08.670Z,48.74
2016-06-09T09:24:08.611Z,48.64
2016-06-09T09:25:08.567Z,48.35
2016-06-09T09:26:11.523Z,47.97
2016-06-09T09:27:08.760Z,47.87
2016-06-09T09:28:11.421Z,47.58
2016-06-09T09:29:08.407Z,47.51
2016-06-09T09:30:11.363Z,47.41
2016-06-09T09:31:08.508Z,46.65
2016-06-09T09:32:08.229Z,46.94
2016-06-09T09:33:08.200Z,46.84
2016-06-09T09:34:08.157Z,46.48
2016-06-09T09:35:11.114Z,46.67
2016-06-09T09:36:07.992Z,46.48
2016-06-09T09:37:10.838Z,46.65
2016-06-09T09:38:08.170Z,47.41
2016-06-09T09:39:07.938Z,47.41
2016-06-09T09:40:07.988Z,47.51
2016-06-09T09:41:07.850Z,47.51
2016-06-09T09:42:07.792Z,46.84
2016-06-09T09:43:07.950Z,47.22
2016-06-09T09:44:07.704Z,46.86
2016-06-09T09:45:07.848Z,46.38
2016-06-09T09:46:07.601Z,46.67
2016-06-09T09:47:07.572Z,46.67
2016-06-09T09:48:07.512Z,46.77
2016-06-09T09:49:07.516Z,46.58
2016-06-09T09:50:07.410Z,46.09
2016-06-09T09:51:07.445Z,46.38
2016-06-09T09:52:10.323Z,45.9
2016-06-09T09:53:07.309Z,46
2016-06-09T09:54:07.234Z,45.81
2016-06-09T09:55:08.082Z,46.09
2016-06-09T09:56:07.147Z,45.42
2016-06-09T09:57:07.102Z,45.81
2016-06-09T09:58:07.060Z,45.32
2016-06-09T09:59:06.999Z,45.42
2016-06-09T10:00:07.159Z,45.52
2016-06-09T10:01:06.912Z,46.19
2016-06-09T10:02:07.290Z,45.71
2016-06-09T10:03:06.840Z,46.28
2016-06-09T10:04:06.781Z,46.28
2016-06-09T10:05:06.737Z,46.38
2016-06-09T10:06:06.677Z,46.48
2016-06-09T10:07:06.696Z,46.67
2016-06-09T10:08:06.605Z,46.38
2016-06-09T10:09:06.547Z,46.38
2016-06-09T10:10:06.517Z,46.09
2016-06-09T10:11:06.459Z,46.12
2016-06-09T10:12:06.399Z,46.19
2016-06-09T10:13:06.387Z,46.19
2016-06-09T10:14:06.390Z,46.09
2016-06-09T10:15:06.299Z,45.71
2016-06-09T10:16:06.318Z,45.81
2016-06-09T10:17:06.196Z,45.83
2016-06-09T10:18:06.199Z,45.54
2016-06-09T10:19:06.092Z,45.54
2016-06-09T10:20:06.064Z,45.45
2016-06-09T10:21:06.037Z,45.54
2016-06-09T10:22:06.164Z,44.96
2016-06-09T10:23:05.918Z,44.68
2016-06-09T10:24:05.874Z,44.29
2016-06-09T10:25:05.860Z,44.48
2016-06-09T10:26:05.988Z,44.6
2016-06-09T10:27:08.789Z,44.58
2016-06-09T10:28:05.698Z,44.29
2016-06-09T10:29:05.639Z,44
2016-06-09T10:30:05.611Z,44.2
2016-06-09T10:31:05.615Z,43.93
2016-06-09T10:32:05.539Z,43.64
2016-06-09T10:33:05.823Z,43.64
2016-06-09T10:34:08.435Z,43.84
2016-06-09T10:35:08.391Z,44.2
2016-06-09T10:36:05.536Z,44.2
2016-06-09T10:37:05.304Z,44.1
2016-06-09T10:38:05.244Z,44.2
2016-06-09T10:39:08.622Z,44.1
2016-06-09T10:40:08.157Z,43.81
2016-06-09T10:41:05.113Z,43.71
2016-06-09T10:42:05.085Z,43.33
2016-06-09T10:43:05.229Z,43.04
2016-06-09T10:44:08.388Z,42.97
2016-06-09T10:45:07.938Z,42.77
2016-06-09T10:46:04.879Z,42.97
2016-06-09T10:47:04.866Z,42.87
2016-06-09T10:48:04.806Z,42.97
2016-06-09T10:49:04.748Z,42.68
2016-06-09T10:50:04.703Z,43.16
2016-06-09T10:51:04.848Z,42.49
2016-06-09T10:52:04.601Z,42.87
2016-06-09T10:53:04.588Z,42.68
2016-06-09T10:54:07.575Z,42.58
2016-06-09T10:55:04.734Z,42.77
2016-06-09T10:56:04.456Z,42.2
2016-06-09T10:57:04.397Z,42.58
2016-06-09T10:58:04.337Z,42
2016-06-09T10:59:04.356Z,42
2016-06-09T11:00:04.297Z,41.82
2016-06-09T11:01:22.003Z,41.91
2016-06-09T11:02:07.163Z,42.49
2016-06-09T11:03:04.352Z,42
2016-06-09T11:04:07.091Z,42.5
2016-06-09T11:05:04.031Z,42.49
2016-06-09T11:06:04.002Z,42.68
2016-06-09T11:07:04.147Z,42.97
2016-06-09T11:08:04.118Z,42.2
2016-06-09T11:09:03.856Z,42.32
2016-06-09T11:10:04.015Z,42.2
2016-06-09T11:11:03.971Z,42.68
2016-06-09T11:12:03.740Z,42.1
2016-06-09T11:13:03.571Z,42.87
2016-06-09T11:14:03.480Z,42.68
2016-06-09T11:15:03.561Z,42.68
2016-06-09T11:16:03.533Z,42.3
2016-06-09T11:17:03.473Z,42.97
2016-06-09T11:18:06.445Z,42.58
2016-06-09T11:19:03.621Z,42.58
2016-06-09T11:20:03.357Z,42.49
2016-06-09T11:21:03.299Z,41.62
2016-06-09T11:22:03.443Z,42
2016-06-09T11:23:03.211Z,41.64
2016-06-09T11:24:14.995Z,41.35
2016-06-09T11:25:03.139Z,41.06
2016-06-09T11:26:03.080Z,40.8
2016-06-09T11:27:03.536Z,40.89
2016-06-09T11:28:06.305Z,40.7
2016-06-09T11:29:03.167Z,40.51
2016-06-09T11:30:05.905Z,40.03
2016-06-09T11:31:02.860Z,39.66
2016-06-09T11:32:02.973Z,40.14
2016-06-09T11:33:02.789Z,39.76
2016-06-09T11:34:05.745Z,39.56
2016-06-09T11:35:02.888Z,39.47
2016-06-09T11:36:02.626Z,40.05
2016-06-09T11:37:03.598Z,40.24
2016-06-09T11:38:02.554Z,40.03
2016-06-09T11:39:02.495Z,39.83
2016-06-09T11:40:02.466Z,40.03
2016-06-09T11:41:02.470Z,39.18
2016-06-09T11:42:02.394Z,39.18
2016-06-09T11:43:02.336Z,39.28
2016-06-09T11:44:02.307Z,39.28
2016-06-09T11:45:02.342Z,38.99
2016-06-09T11:46:02.407Z,39.37
2016-06-09T11:47:02.145Z,39.37
2016-06-09T11:48:02.335Z,39.28
2016-06-09T11:49:02.134Z,39.37
2016-06-09T11:50:05.029Z,39.47
2016-06-09T11:51:02.032Z,39.18
2016-06-09T11:52:02.081Z,38.99
2016-06-09T11:53:02.022Z,38.7
2016-06-09T11:54:01.854Z,39.09
2016-06-09T11:55:01.653Z,38.91
2016-06-09T11:56:01.954Z,39.28
2016-06-09T11:57:01.721Z,38.91
2016-06-09T11:58:01.663Z,39.28
2016-06-09T11:59:01.619Z,38.89
2016-06-09T12:00:01.574Z,38.79
2016-06-09T12:01:01.516Z,38.6
2016-06-09T12:02:04.691Z,38.31
2016-06-09T12:03:01.444Z,37.95
2016-06-09T12:04:01.415Z,37.46
2016-06-09T12:05:01.418Z,37.48
2016-06-09T12:06:01.421Z,37.29
2016-06-09T12:07:02.393Z,37.1
2016-06-09T12:08:04.209Z,36.23
2016-06-09T12:09:01.180Z,36.06
2016-06-09T12:10:01.418Z,35.67
2016-06-09T12:11:04.094Z,35.77
2016-06-09T12:12:01.658Z,35.38
2016-06-09T12:13:01.005Z,35.58
2016-06-09T12:14:00.961Z,35.1
2016-06-09T12:15:00.918Z,34.8
2016-06-09T12:16:03.890Z,35
2016-06-09T12:17:03.846Z,35.38
2016-06-09T12:18:00.990Z,35.67
2016-06-09T12:19:00.946Z,35.96
2016-06-09T12:20:03.699Z,35.94
2016-06-09T12:21:00.702Z,35.94
2016-06-09T12:22:00.908Z,35.85
2016-06-09T12:23:00.583Z,35.94
2016-06-09T12:24:00.524Z,35.75
2016-06-09T12:25:00.401Z,35.65
2016-06-09T12:26:03.436Z,35.75
2016-06-09T12:27:00.408Z,35.56
2016-06-09T12:28:00.348Z,35.75
2016-06-09T12:29:00.367Z,35.75
2016-06-09T12:30:00.277Z,35.27
2016-06-09T12:31:00.248Z,35.77
2016-06-09T12:32:00.173Z,35.85
2016-06-09T12:33:00.145Z,36.33
2016-06-09T12:34:00.101Z,36.33
2016-06-09T12:35:03.088Z,36.43
2016-06-09T12:36:00.936Z,36.43
2016-06-09T12:37:00.252Z,35.85
2016-06-09T12:38:00.130Z,35.77
2016-06-09T12:38:59.882Z,35.1
2016-06-09T12:39:59.838Z,34.7
2016-06-09T12:40:59.795Z,34.52
2016-06-09T12:41:59.751Z,34.7
2016-06-09T12:42:59.692Z,34.32
2016-06-09T12:43:59.851Z,34.22
2016-06-09T12:44:59.604Z,34.32
2016-06-09T12:45:59.654Z,33.74
2016-06-09T12:46:59.516Z,33.65
2016-06-09T12:47:59.597Z,33.66
2016-06-09T12:48:59.444Z,33.47
2016-06-09T12:49:59.401Z,32.79
2016-06-09T12:51:00.060Z,32.99
2016-06-09T12:51:59.312Z,33
2016-06-09T12:52:59.284Z,33.39
2016-06-09T12:54:02.256Z,33.48
2016-06-09T12:54:59.197Z,33.66
2016-06-09T12:55:59.137Z,33.84